sensor_id;sensor_type;location;lat;lon;timestamp;temperature;humidity
19180;DHT22;9722;48.754;8.868;2023-04-25T00:00:27;8.60;87.40
19180;DHT22;9722;48.754;8.868;2023-04-25T00:03:48;8.50;87.40
19180;DHT22;9722;48.754;8.868;2023-04-25T00:07:08;8.50;87.80
19180;DHT22;9722;48.754;8.868;2023-04-25T00:10:29;8.50;88.00
19180;DHT22;9722;48.754;8.868;2023-04-25T00:13:49;8.40;88.30
19180;DHT22;9722;48.754;8.868;2023-04-25T00:17:14;8.40;88.40
19180;DHT22;9722;48.754;8.868;2023-04-25T00:20:35;8.40;88.70
19180;DHT22;9722;48.754;8.868;2023-04-25T00:23:56;8.30;89.00
19180;DHT22;9722;48.754;8.868;2023-04-25T00:27:17;8.30;89.30
19180;DHT22;9722;48.754;8.868;2023-04-25T00:30:39;8.30;89.50
19180;DHT22;9722;48.754;8.868;2023-04-25T00:33:59;8.30;89.80
19180;DHT22;9722;48.754;8.868;2023-04-25T00:37:20;8.30;90.00
19180;DHT22;9722;48.754;8.868;2023-04-25T00:40:40;8.30;90.00
19180;DHT22;9722;48.754;8.868;2023-04-25T00:44:04;8.40;90.10
19180;DHT22;9722;48.754;8.868;2023-04-25T00:47:28;8.40;90.20
19180;DHT22;9722;48.754;8.868;2023-04-25T00:50:57;8.40;90.30
19180;DHT22;9722;48.754;8.868;2023-04-25T00:54:18;8.40;90.30
19180;DHT22;9722;48.754;8.868;2023-04-25T00:57:39;8.40;90.30
19180;DHT22;9722;48.754;8.868;2023-04-25T01:01:01;8.30;90.40
19180;DHT22;9722;48.754;8.868;2023-04-25T01:04:21;8.30;90.50
19180;DHT22;9722;48.754;8.868;2023-04-25T01:07:42;8.20;90.70
19180;DHT22;9722;48.754;8.868;2023-04-25T01:11:03;8.20;90.80
19180;DHT22;9722;48.754;8.868;2023-04-25T01:14:23;8.10;90.90
19180;DHT22;9722;48.754;8.868;2023-04-25T01:17:44;8.10;91.10
19180;DHT22;9722;48.754;8.868;2023-04-25T01:21:09;8.10;91.20
19180;DHT22;9722;48.754;8.868;2023-04-25T01:24:33;8.10;91.40
19180;DHT22;9722;48.754;8.868;2023-04-25T01:27:54;8.00;91.50
19180;DHT22;9722;48.754;8.868;2023-04-25T01:31:15;8.00;91.50
19180;DHT22;9722;48.754;8.868;2023-04-25T01:34:37;8.00;91.60
19180;DHT22;9722;48.754;8.868;2023-04-25T01:37:57;7.90;91.80
19180;DHT22;9722;48.754;8.868;2023-04-25T01:41:19;7.80;92.00
19180;DHT22;9722;48.754;8.868;2023-04-25T01:44:39;7.70;92.20
19180;DHT22;9722;48.754;8.868;2023-04-25T01:48:00;7.70;92.40
19180;DHT22;9722;48.754;8.868;2023-04-25T01:51:21;7.60;92.50
19180;DHT22;9722;48.754;8.868;2023-04-25T01:54:41;7.60;92.60
19180;DHT22;9722;48.754;8.868;2023-04-25T01:58:05;7.60;92.80
19180;DHT22;9722;48.754;8.868;2023-04-25T02:01:34;7.50;92.90
19180;DHT22;9722;48.754;8.868;2023-04-25T02:04:55;7.50;93.10
19180;DHT22;9722;48.754;8.868;2023-04-25T02:08:17;7.40;93.30
19180;DHT22;9722;48.754;8.868;2023-04-25T02:11:38;7.40;93.40
19180;DHT22;9722;48.754;8.868;2023-04-25T02:14:58;7.40;93.50
19180;DHT22;9722;48.754;8.868;2023-04-25T02:18:19;7.40;93.60
19180;DHT22;9722;48.754;8.868;2023-04-25T02:21:41;7.50;93.70
19180;DHT22;9722;48.754;8.868;2023-04-25T02:25:02;7.50;93.70
19180;DHT22;9722;48.754;8.868;2023-04-25T02:28:24;7.60;93.70
19180;DHT22;9722;48.754;8.868;2023-04-25T02:31:46;7.60;93.70
19180;DHT22;9722;48.754;8.868;2023-04-25T02:35:07;7.50;93.70
19180;DHT22;9722;48.754;8.868;2023-04-25T02:38:27;7.40;93.80
19180;DHT22;9722;48.754;8.868;2023-04-25T02:41:48;7.40;94.00
19180;DHT22;9722;48.754;8.868;2023-04-25T02:45:09;7.40;94.10
19180;DHT22;9722;48.754;8.868;2023-04-25T02:48:29;7.50;94.20
19180;DHT22;9722;48.754;8.868;2023-04-25T02:51:50;7.50;94.20
19180;DHT22;9722;48.754;8.868;2023-04-25T02:55:10;7.50;94.30
19180;DHT22;9722;48.754;8.868;2023-04-25T02:58:32;7.60;94.30
19180;DHT22;9722;48.754;8.868;2023-04-25T03:01:52;7.50;94.20
19180;DHT22;9722;48.754;8.868;2023-04-25T03:05:13;7.70;94.20
19180;DHT22;9722;48.754;8.868;2023-04-25T03:08:34;7.70;94.00
19180;DHT22;9722;48.754;8.868;2023-04-25T03:11:54;7.70;93.90
19180;DHT22;9722;48.754;8.868;2023-04-25T03:15:15;7.70;93.90
19180;DHT22;9722;48.754;8.868;2023-04-25T03:18:36;7.60;93.90
19180;DHT22;9722;48.754;8.868;2023-04-25T03:21:57;7.50;94.10
19180;DHT22;9722;48.754;8.868;2023-04-25T03:25:17;7.40;94.20
19180;DHT22;9722;48.754;8.868;2023-04-25T03:28:38;7.40;94.50
19180;DHT22;9722;48.754;8.868;2023-04-25T03:32:00;7.30;94.60
19180;DHT22;9722;48.754;8.868;2023-04-25T03:35:20;7.40;94.80
19180;DHT22;9722;48.754;8.868;2023-04-25T03:38:41;7.40;94.80
19180;DHT22;9722;48.754;8.868;2023-04-25T03:42:02;7.40;94.70
19180;DHT22;9722;48.754;8.868;2023-04-25T03:45:23;7.40;94.60
19180;DHT22;9722;48.754;8.868;2023-04-25T03:48:43;7.30;94.60
19180;DHT22;9722;48.754;8.868;2023-04-25T03:52:04;7.20;94.80
19180;DHT22;9722;48.754;8.868;2023-04-25T03:55:25;7.00;94.80
19180;DHT22;9722;48.754;8.868;2023-04-25T03:58:45;6.90;95.10
19180;DHT22;9722;48.754;8.868;2023-04-25T04:02:06;6.70;95.30
19180;DHT22;9722;48.754;8.868;2023-04-25T04:05:26;6.60;95.60
19180;DHT22;9722;48.754;8.868;2023-04-25T04:08:47;6.50;95.80
19180;DHT22;9722;48.754;8.868;2023-04-25T04:12:08;6.40;96.10
19180;DHT22;9722;48.754;8.868;2023-04-25T04:15:29;6.40;96.30
19180;DHT22;9722;48.754;8.868;2023-04-25T04:18:50;6.40;96.50
19180;DHT22;9722;48.754;8.868;2023-04-25T04:22:10;6.50;96.60
19180;DHT22;9722;48.754;8.868;2023-04-25T04:25:31;6.40;96.60
19180;DHT22;9722;48.754;8.868;2023-04-25T04:28:51;6.40;96.70
19180;DHT22;9722;48.754;8.868;2023-04-25T04:32:15;6.50;96.80
19180;DHT22;9722;48.754;8.868;2023-04-25T04:35:36;6.60;96.80
19180;DHT22;9722;48.754;8.868;2023-04-25T04:38:56;6.70;96.80
19180;DHT22;9722;48.754;8.868;2023-04-25T04:42:17;6.70;96.80
19180;DHT22;9722;48.754;8.868;2023-04-25T04:45:37;6.80;96.70
19180;DHT22;9722;48.754;8.868;2023-04-25T04:49:00;6.80;96.80
19180;DHT22;9722;48.754;8.868;2023-04-25T04:52:21;6.80;96.70
19180;DHT22;9722;48.754;8.868;2023-04-25T04:55:41;6.80;96.80
19180;DHT22;9722;48.754;8.868;2023-04-25T04:59:03;6.80;96.80
19180;DHT22;9722;48.754;8.868;2023-04-25T05:02:23;6.90;96.90
19180;DHT22;9722;48.754;8.868;2023-04-25T05:05:44;6.90;97.00
19180;DHT22;9722;48.754;8.868;2023-04-25T05:09:05;7.00;97.10
19180;DHT22;9722;48.754;8.868;2023-04-25T05:12:26;7.10;97.20
19180;DHT22;9722;48.754;8.868;2023-04-25T05:15:46;7.10;97.10
19180;DHT22;9722;48.754;8.868;2023-04-25T05:19:07;7.20;97.20
19180;DHT22;9722;48.754;8.868;2023-04-25T05:22:28;7.30;97.20
19180;DHT22;9722;48.754;8.868;2023-04-25T05:25:48;7.50;97.10
19180;DHT22;9722;48.754;8.868;2023-04-25T05:29:08;7.60;97.00
19180;DHT22;9722;48.754;8.868;2023-04-25T05:32:29;7.70;96.80
19180;DHT22;9722;48.754;8.868;2023-04-25T05:35:50;7.80;96.70
19180;DHT22;9722;48.754;8.868;2023-04-25T05:39:10;7.80;96.50
19180;DHT22;9722;48.754;8.868;2023-04-25T05:42:31;7.80;96.40
19180;DHT22;9722;48.754;8.868;2023-04-25T05:45:51;7.70;96.40
19180;DHT22;9722;48.754;8.868;2023-04-25T05:49:12;7.70;96.50
19180;DHT22;9722;48.754;8.868;2023-04-25T05:52:33;7.70;96.60
19180;DHT22;9722;48.754;8.868;2023-04-25T05:55:53;7.70;96.70
19180;DHT22;9722;48.754;8.868;2023-04-25T05:59:13;7.70;96.70
19180;DHT22;9722;48.754;8.868;2023-04-25T06:02:34;7.80;96.70
19180;DHT22;9722;48.754;8.868;2023-04-25T06:05:54;7.80;96.70
19180;DHT22;9722;48.754;8.868;2023-04-25T06:09:15;7.80;96.70
19180;DHT22;9722;48.754;8.868;2023-04-25T06:12:36;7.80;96.80
19180;DHT22;9722;48.754;8.868;2023-04-25T06:15:56;7.90;97.00
19180;DHT22;9722;48.754;8.868;2023-04-25T06:19:17;8.10;97.10
19180;DHT22;9722;48.754;8.868;2023-04-25T06:22:37;7.90;96.90
19180;DHT22;9722;48.754;8.868;2023-04-25T06:25:58;7.90;96.90
19180;DHT22;9722;48.754;8.868;2023-04-25T06:29:19;7.90;96.90
19180;DHT22;9722;48.754;8.868;2023-04-25T06:32:39;8.00;96.90
19180;DHT22;9722;48.754;8.868;2023-04-25T06:36:00;7.90;96.90
19180;DHT22;9722;48.754;8.868;2023-04-25T06:39:20;8.00;96.90
19180;DHT22;9722;48.754;8.868;2023-04-25T06:42:43;7.90;96.90
19180;DHT22;9722;48.754;8.868;2023-04-25T06:46:04;7.90;97.00
19180;DHT22;9722;48.754;8.868;2023-04-25T06:49:24;7.90;97.20
19180;DHT22;9722;48.754;8.868;2023-04-25T06:52:45;7.90;97.30
19180;DHT22;9722;48.754;8.868;2023-04-25T06:56:05;7.90;97.60
19180;DHT22;9722;48.754;8.868;2023-04-25T06:59:26;8.00;97.70
19180;DHT22;9722;48.754;8.868;2023-04-25T07:02:47;8.00;97.60
19180;DHT22;9722;48.754;8.868;2023-04-25T07:06:07;8.10;97.70
19180;DHT22;9722;48.754;8.868;2023-04-25T07:09:28;8.10;97.70
19180;DHT22;9722;48.754;8.868;2023-04-25T07:12:48;8.20;97.70
19180;DHT22;9722;48.754;8.868;2023-04-25T07:16:09;8.20;97.50
19180;DHT22;9722;48.754;8.868;2023-04-25T07:19:29;8.20;97.40
19180;DHT22;9722;48.754;8.868;2023-04-25T07:22:50;8.20;97.40
19180;DHT22;9722;48.754;8.868;2023-04-25T07:26:10;8.20;97.40
19180;DHT22;9722;48.754;8.868;2023-04-25T07:29:31;8.20;97.80
19180;DHT22;9722;48.754;8.868;2023-04-25T07:32:52;8.20;97.60
19180;DHT22;9722;48.754;8.868;2023-04-25T07:36:13;8.30;97.60
19180;DHT22;9722;48.754;8.868;2023-04-25T07:39:36;8.30;97.50
19180;DHT22;9722;48.754;8.868;2023-04-25T07:42:57;8.30;97.60
19180;DHT22;9722;48.754;8.868;2023-04-25T07:46:17;8.30;97.60
19180;DHT22;9722;48.754;8.868;2023-04-25T07:49:38;8.30;97.60
19180;DHT22;9722;48.754;8.868;2023-04-25T07:52:59;8.30;97.70
19180;DHT22;9722;48.754;8.868;2023-04-25T07:56:19;8.40;97.80
19180;DHT22;9722;48.754;8.868;2023-04-25T07:59:40;8.40;97.70
19180;DHT22;9722;48.754;8.868;2023-04-25T08:03:00;8.40;97.70
19180;DHT22;9722;48.754;8.868;2023-04-25T08:06:21;8.50;97.70
19180;DHT22;9722;48.754;8.868;2023-04-25T08:09:41;8.50;97.70
19180;DHT22;9722;48.754;8.868;2023-04-25T08:13:02;8.50;97.50
19180;DHT22;9722;48.754;8.868;2023-04-25T08:16:22;8.50;97.60
19180;DHT22;9722;48.754;8.868;2023-04-25T08:19:43;8.50;97.70
19180;DHT22;9722;48.754;8.868;2023-04-25T08:23:03;8.60;97.80
19180;DHT22;9722;48.754;8.868;2023-04-25T08:26:24;8.70;97.60
19180;DHT22;9722;48.754;8.868;2023-04-25T08:29:45;8.70;97.40
19180;DHT22;9722;48.754;8.868;2023-04-25T08:33:05;8.60;97.20
19180;DHT22;9722;48.754;8.868;2023-04-25T08:36:26;8.60;97.20
19180;DHT22;9722;48.754;8.868;2023-04-25T08:39:48;8.60;97.20
19180;DHT22;9722;48.754;8.868;2023-04-25T08:43:09;8.60;97.40
19180;DHT22;9722;48.754;8.868;2023-04-25T08:46:32;8.60;97.40
19180;DHT22;9722;48.754;8.868;2023-04-25T08:49:54;8.60;97.20
19180;DHT22;9722;48.754;8.868;2023-04-25T08:53:16;8.70;97.30
19180;DHT22;9722;48.754;8.868;2023-04-25T08:56:39;8.70;97.20
19180;DHT22;9722;48.754;8.868;2023-04-25T09:00:01;8.70;96.90
19180;DHT22;9722;48.754;8.868;2023-04-25T09:03:22;8.60;96.70
19180;DHT22;9722;48.754;8.868;2023-04-25T09:06:42;8.60;96.70
19180;DHT22;9722;48.754;8.868;2023-04-25T09:10:03;8.50;96.90
19180;DHT22;9722;48.754;8.868;2023-04-25T09:13:26;8.50;97.00
19180;DHT22;9722;48.754;8.868;2023-04-25T09:20:16;8.50;96.70
19180;DHT22;9722;48.754;8.868;2023-04-25T09:23:48;8.50;96.30
19180;DHT22;9722;48.754;8.868;2023-04-25T09:27:13;8.50;96.30
19180;DHT22;9722;48.754;8.868;2023-04-25T09:30:38;8.50;96.20
19180;DHT22;9722;48.754;8.868;2023-04-25T09:33:59;8.50;95.80
19180;DHT22;9722;48.754;8.868;2023-04-25T09:37:28;8.40;96.00
19180;DHT22;9722;48.754;8.868;2023-04-25T09:40:51;8.50;96.00
19180;DHT22;9722;48.754;8.868;2023-04-25T09:44:19;8.50;95.60
19180;DHT22;9722;48.754;8.868;2023-04-25T09:47:43;8.50;95.50
19180;DHT22;9722;48.754;8.868;2023-04-25T09:51:11;8.60;95.30
19180;DHT22;9722;48.754;8.868;2023-04-25T09:54:33;8.50;95.20
19180;DHT22;9722;48.754;8.868;2023-04-25T09:57:56;8.60;95.30
19180;DHT22;9722;48.754;8.868;2023-04-25T10:01:20;8.50;95.00
19180;DHT22;9722;48.754;8.868;2023-04-25T10:04:42;8.50;94.80
19180;DHT22;9722;48.754;8.868;2023-04-25T10:08:05;8.40;95.10
19180;DHT22;9722;48.754;8.868;2023-04-25T10:11:27;8.40;95.40
19180;DHT22;9722;48.754;8.868;2023-04-25T10:14:48;8.50;95.60
19180;DHT22;9722;48.754;8.868;2023-04-25T10:18:08;8.60;95.70
19180;DHT22;9722;48.754;8.868;2023-04-25T10:21:31;8.70;95.70
19180;DHT22;9722;48.754;8.868;2023-04-25T10:24:52;8.80;95.60
19180;DHT22;9722;48.754;8.868;2023-04-25T10:28:13;8.90;95.60
19180;DHT22;9722;48.754;8.868;2023-04-25T10:31:45;8.90;95.30
19180;DHT22;9722;48.754;8.868;2023-04-25T10:35:24;9.00;95.20
19180;DHT22;9722;48.754;8.868;2023-04-25T10:38:47;9.30;95.40
19180;DHT22;9722;48.754;8.868;2023-04-25T10:42:08;9.30;95.10
19180;DHT22;9722;48.754;8.868;2023-04-25T10:45:29;9.40;95.10
19180;DHT22;9722;48.754;8.868;2023-04-25T10:48:57;9.50;95.10
19180;DHT22;9722;48.754;8.868;2023-04-25T10:52:26;9.60;95.20
19180;DHT22;9722;48.754;8.868;2023-04-25T10:55:51;9.80;95.20
19180;DHT22;9722;48.754;8.868;2023-04-25T10:59:18;10.00;94.50
19180;DHT22;9722;48.754;8.868;2023-04-25T11:02:47;10.10;94.10
19180;DHT22;9722;48.754;8.868;2023-04-25T11:06:43;10.10;93.80
19180;DHT22;9722;48.754;8.868;2023-04-25T11:09:57;10.00;93.70
19180;DHT22;9722;48.754;8.868;2023-04-25T11:13:21;9.90;94.20
19180;DHT22;9722;48.754;8.868;2023-04-25T11:16:41;9.80;94.10
19180;DHT22;9722;48.754;8.868;2023-04-25T11:20:02;9.80;94.10
19180;DHT22;9722;48.754;8.868;2023-04-25T11:23:27;9.80;94.10
19180;DHT22;9722;48.754;8.868;2023-04-25T11:26:49;9.80;94.10
19180;DHT22;9722;48.754;8.868;2023-04-25T11:30:14;9.90;94.00
19180;DHT22;9722;48.754;8.868;2023-04-25T11:33:37;10.10;93.40
19180;DHT22;9722;48.754;8.868;2023-04-25T11:36:59;10.20;93.00
19180;DHT22;9722;48.754;8.868;2023-04-25T11:40:20;10.40;92.90
19180;DHT22;9722;48.754;8.868;2023-04-25T11:43:40;10.60;92.20
19180;DHT22;9722;48.754;8.868;2023-04-25T11:47:03;10.80;91.80
19180;DHT22;9722;48.754;8.868;2023-04-25T11:50:24;11.00;91.50
19180;DHT22;9722;48.754;8.868;2023-04-25T11:53:44;11.10;91.20
19180;DHT22;9722;48.754;8.868;2023-04-25T11:57:05;11.20;90.90
19180;DHT22;9722;48.754;8.868;2023-04-25T12:00:27;11.30;90.50
19180;DHT22;9722;48.754;8.868;2023-04-25T12:03:47;11.50;90.20
19180;DHT22;9722;48.754;8.868;2023-04-25T12:07:10;11.60;89.90
19180;DHT22;9722;48.754;8.868;2023-04-25T12:10:30;11.60;88.80
19180;DHT22;9722;48.754;8.868;2023-04-25T12:13:54;11.50;87.10
19180;DHT22;9722;48.754;8.868;2023-04-25T12:17:14;11.50;87.20
19180;DHT22;9722;48.754;8.868;2023-04-25T12:20:35;11.60;86.50
19180;DHT22;9722;48.754;8.868;2023-04-25T12:23:56;11.70;86.20
19180;DHT22;9722;48.754;8.868;2023-04-25T12:27:17;11.80;86.10
19180;DHT22;9722;48.754;8.868;2023-04-25T12:31:14;11.80;85.10
19180;DHT22;9722;48.754;8.868;2023-04-25T12:34:36;11.90;85.10
19180;DHT22;9722;48.754;8.868;2023-04-25T12:37:56;12.10;85.30
19180;DHT22;9722;48.754;8.868;2023-04-25T12:41:17;12.50;84.80
19180;DHT22;9722;48.754;8.868;2023-04-25T12:44:38;12.70;83.60
19180;DHT22;9722;48.754;8.868;2023-04-25T12:47:58;13.00;82.70
19180;DHT22;9722;48.754;8.868;2023-04-25T12:51:19;13.20;81.30
19180;DHT22;9722;48.754;8.868;2023-04-25T12:54:39;13.50;80.00
19180;DHT22;9722;48.754;8.868;2023-04-25T12:58:00;13.80;78.50
19180;DHT22;9722;48.754;8.868;2023-04-25T13:01:21;13.90;77.60
19180;DHT22;9722;48.754;8.868;2023-04-25T13:04:42;14.00;76.70
19180;DHT22;9722;48.754;8.868;2023-04-25T13:08:02;14.10;75.50
19180;DHT22;9722;48.754;8.868;2023-04-25T13:11:23;14.00;74.20
19180;DHT22;9722;48.754;8.868;2023-04-25T13:14:43;14.00;74.60
19180;DHT22;9722;48.754;8.868;2023-04-25T13:18:04;14.00;75.30
19180;DHT22;9722;48.754;8.868;2023-04-25T13:21:25;14.20;75.30
19180;DHT22;9722;48.754;8.868;2023-04-25T13:24:47;14.40;74.20
19180;DHT22;9722;48.754;8.868;2023-04-25T13:28:07;14.60;72.30
19180;DHT22;9722;48.754;8.868;2023-04-25T13:31:28;14.90;71.90
19180;DHT22;9722;48.754;8.868;2023-04-25T13:34:50;15.20;69.30
19180;DHT22;9722;48.754;8.868;2023-04-25T13:38:11;15.20;69.20
19180;DHT22;9722;48.754;8.868;2023-04-25T13:41:31;15.30;70.00
19180;DHT22;9722;48.754;8.868;2023-04-25T13:44:52;15.60;70.00
19180;DHT22;9722;48.754;8.868;2023-04-25T13:48:12;16.20;68.30
19180;DHT22;9722;48.754;8.868;2023-04-25T13:51:33;16.70;66.50
19180;DHT22;9722;48.754;8.868;2023-04-25T13:54:54;17.00;65.40
19180;DHT22;9722;48.754;8.868;2023-04-25T13:58:14;17.00;63.70
19180;DHT22;9722;48.754;8.868;2023-04-25T14:01:35;16.90;63.20
19180;DHT22;9722;48.754;8.868;2023-04-25T14:04:55;16.80;62.60
19180;DHT22;9722;48.754;8.868;2023-04-25T14:08:16;16.60;62.50
19180;DHT22;9722;48.754;8.868;2023-04-25T14:11:37;16.40;62.20
19180;DHT22;9722;48.754;8.868;2023-04-25T14:14:57;16.20;62.20
19180;DHT22;9722;48.754;8.868;2023-04-25T14:18:18;16.10;61.70
19180;DHT22;9722;48.754;8.868;2023-04-25T14:21:39;16.20;61.30
19180;DHT22;9722;48.754;8.868;2023-04-25T14:25:00;16.40;60.80
19180;DHT22;9722;48.754;8.868;2023-04-25T14:28:20;16.40;59.80
19180;DHT22;9722;48.754;8.868;2023-04-25T14:31:41;16.30;59.10
19180;DHT22;9722;48.754;8.868;2023-04-25T14:35:01;16.20;59.00
19180;DHT22;9722;48.754;8.868;2023-04-25T14:38:22;16.10;59.10
19180;DHT22;9722;48.754;8.868;2023-04-25T14:41:43;16.20;59.00
19180;DHT22;9722;48.754;8.868;2023-04-25T14:45:05;16.20;58.90
19180;DHT22;9722;48.754;8.868;2023-04-25T14:48:27;16.40;58.50
19180;DHT22;9722;48.754;8.868;2023-04-25T14:51:48;16.60;57.80
19180;DHT22;9722;48.754;8.868;2023-04-25T14:55:08;16.50;57.40
19180;DHT22;9722;48.754;8.868;2023-04-25T14:58:29;16.40;57.40
19180;DHT22;9722;48.754;8.868;2023-04-25T15:01:50;16.20;57.50
19180;DHT22;9722;48.754;8.868;2023-04-25T15:05:11;15.80;57.10
19180;DHT22;9722;48.754;8.868;2023-04-25T15:08:31;15.30;57.60
19180;DHT22;9722;48.754;8.868;2023-04-25T15:11:53;15.20;58.20
19180;DHT22;9722;48.754;8.868;2023-04-25T15:15:13;15.20;58.30
19180;DHT22;9722;48.754;8.868;2023-04-25T15:18:34;15.30;58.00
19180;DHT22;9722;48.754;8.868;2023-04-25T15:21:54;15.30;58.20
19180;DHT22;9722;48.754;8.868;2023-04-25T15:25:16;15.20;58.20
19180;DHT22;9722;48.754;8.868;2023-04-25T15:28:39;15.00;58.10
19180;DHT22;9722;48.754;8.868;2023-04-25T15:32:00;14.90;58.40
19180;DHT22;9722;48.754;8.868;2023-04-25T15:35:21;14.90;59.20
19180;DHT22;9722;48.754;8.868;2023-04-25T15:38:41;15.00;58.90
19180;DHT22;9722;48.754;8.868;2023-04-25T15:42:02;14.80;58.50
19180;DHT22;9722;48.754;8.868;2023-04-25T15:45:24;14.80;58.90
19180;DHT22;9722;48.754;8.868;2023-04-25T15:48:47;14.60;59.20
19180;DHT22;9722;48.754;8.868;2023-04-25T15:52:08;14.60;59.60
19180;DHT22;9722;48.754;8.868;2023-04-25T15:55:28;14.40;59.40
19180;DHT22;9722;48.754;8.868;2023-04-25T15:58:49;14.40;59.40
19180;DHT22;9722;48.754;8.868;2023-04-25T16:02:12;14.20;59.50
19180;DHT22;9722;48.754;8.868;2023-04-25T16:05:33;14.00;59.50
19180;DHT22;9722;48.754;8.868;2023-04-25T16:08:53;13.90;59.70
19180;DHT22;9722;48.754;8.868;2023-04-25T16:12:14;13.80;60.00
19180;DHT22;9722;48.754;8.868;2023-04-25T16:15:35;13.70;60.10
19180;DHT22;9722;48.754;8.868;2023-04-25T16:18:56;13.70;60.90
19180;DHT22;9722;48.754;8.868;2023-04-25T16:22:17;13.60;61.60
19180;DHT22;9722;48.754;8.868;2023-04-25T16:25:37;13.50;62.80
19180;DHT22;9722;48.754;8.868;2023-04-25T16:28:58;13.40;62.20
19180;DHT22;9722;48.754;8.868;2023-04-25T16:32:19;13.30;62.20
19180;DHT22;9722;48.754;8.868;2023-04-25T16:35:39;13.20;62.20
19180;DHT22;9722;48.754;8.868;2023-04-25T16:39:00;13.10;62.30
19180;DHT22;9722;48.754;8.868;2023-04-25T16:42:21;13.10;62.80
19180;DHT22;9722;48.754;8.868;2023-04-25T16:45:41;13.00;62.90
19180;DHT22;9722;48.754;8.868;2023-04-25T16:49:02;13.00;63.10
19180;DHT22;9722;48.754;8.868;2023-04-25T16:52:22;12.90;63.20
19180;DHT22;9722;48.754;8.868;2023-04-25T16:55:43;12.70;63.50
19180;DHT22;9722;48.754;8.868;2023-04-25T16:59:04;12.60;64.20
19180;DHT22;9722;48.754;8.868;2023-04-25T17:02:24;12.50;64.90
19180;DHT22;9722;48.754;8.868;2023-04-25T17:05:47;12.40;65.30
19180;DHT22;9722;48.754;8.868;2023-04-25T17:09:09;12.20;65.20
19180;DHT22;9722;48.754;8.868;2023-04-25T17:12:29;12.10;65.30
19180;DHT22;9722;48.754;8.868;2023-04-25T17:15:50;11.90;65.60
19180;DHT22;9722;48.754;8.868;2023-04-25T17:19:11;11.80;66.30
19180;DHT22;9722;48.754;8.868;2023-04-25T17:22:35;11.60;67.30
19180;DHT22;9722;48.754;8.868;2023-04-25T17:25:57;11.50;68.50
19180;DHT22;9722;48.754;8.868;2023-04-25T17:29:17;11.30;69.70
19180;DHT22;9722;48.754;8.868;2023-04-25T17:32:38;11.20;70.70
19180;DHT22;9722;48.754;8.868;2023-04-25T17:35:59;11.00;71.50
19180;DHT22;9722;48.754;8.868;2023-04-25T17:39:19;10.70;72.30
19180;DHT22;9722;48.754;8.868;2023-04-25T17:42:40;10.50;73.30
19180;DHT22;9722;48.754;8.868;2023-04-25T17:46:01;10.30;74.60
19180;DHT22;9722;48.754;8.868;2023-04-25T17:49:22;10.00;75.80
19180;DHT22;9722;48.754;8.868;2023-04-25T17:52:43;9.90;78.30
19180;DHT22;9722;48.754;8.868;2023-04-25T17:56:04;9.70;79.10
19180;DHT22;9722;48.754;8.868;2023-04-25T17:59:26;9.50;80.00
19180;DHT22;9722;48.754;8.868;2023-04-25T18:02:47;9.40;80.70
19180;DHT22;9722;48.754;8.868;2023-04-25T18:06:10;9.40;81.50
19180;DHT22;9722;48.754;8.868;2023-04-25T18:09:31;9.30;82.10
19180;DHT22;9722;48.754;8.868;2023-04-25T18:12:51;9.20;82.70
19180;DHT22;9722;48.754;8.868;2023-04-25T18:16:12;9.10;83.30
19180;DHT22;9722;48.754;8.868;2023-04-25T18:19:33;9.00;83.60
19180;DHT22;9722;48.754;8.868;2023-04-25T18:22:54;9.00;84.00
19180;DHT22;9722;48.754;8.868;2023-04-25T18:26:15;8.90;84.30
19180;DHT22;9722;48.754;8.868;2023-04-25T18:29:35;8.80;84.60
19180;DHT22;9722;48.754;8.868;2023-04-25T18:32:58;8.70;84.90
19180;DHT22;9722;48.754;8.868;2023-04-25T18:36:19;8.70;86.10
19180;DHT22;9722;48.754;8.868;2023-04-25T18:39:39;8.60;85.60
19180;DHT22;9722;48.754;8.868;2023-04-25T18:43:00;8.60;86.10
19180;DHT22;9722;48.754;8.868;2023-04-25T18:46:21;8.60;86.50
19180;DHT22;9722;48.754;8.868;2023-04-25T18:49:42;8.50;86.80
19180;DHT22;9722;48.754;8.868;2023-04-25T18:53:02;8.40;87.20
19180;DHT22;9722;48.754;8.868;2023-04-25T18:56:23;8.40;87.40
19180;DHT22;9722;48.754;8.868;2023-04-25T18:59:44;8.40;87.90
19180;DHT22;9722;48.754;8.868;2023-04-25T19:03:05;8.30;88.20
19180;DHT22;9722;48.754;8.868;2023-04-25T19:06:27;8.30;88.70
19180;DHT22;9722;48.754;8.868;2023-04-25T19:09:48;8.30;89.20
19180;DHT22;9722;48.754;8.868;2023-04-25T19:13:09;8.30;90.10
19180;DHT22;9722;48.754;8.868;2023-04-25T19:16:29;8.30;90.00
19180;DHT22;9722;48.754;8.868;2023-04-25T19:19:56;8.30;90.10
19180;DHT22;9722;48.754;8.868;2023-04-25T19:23:17;8.30;90.30
19180;DHT22;9722;48.754;8.868;2023-04-25T19:26:38;8.20;90.40
19180;DHT22;9722;48.754;8.868;2023-04-25T19:29:58;8.20;90.70
19180;DHT22;9722;48.754;8.868;2023-04-25T19:33:27;8.30;90.90
19180;DHT22;9722;48.754;8.868;2023-04-25T19:36:47;8.30;91.00
19180;DHT22;9722;48.754;8.868;2023-04-25T19:40:13;8.30;91.00
19180;DHT22;9722;48.754;8.868;2023-04-25T19:43:34;8.30;91.00
19180;DHT22;9722;48.754;8.868;2023-04-25T19:46:54;8.30;91.00
19180;DHT22;9722;48.754;8.868;2023-04-25T19:50:15;8.20;91.30
19180;DHT22;9722;48.754;8.868;2023-04-25T19:53:35;8.10;91.10
19180;DHT22;9722;48.754;8.868;2023-04-25T19:56:56;8.10;91.40
19180;DHT22;9722;48.754;8.868;2023-04-25T20:00:17;8.10;91.60
19180;DHT22;9722;48.754;8.868;2023-04-25T20:03:38;8.00;91.80
19180;DHT22;9722;48.754;8.868;2023-04-25T20:06:58;8.10;92.00
19180;DHT22;9722;48.754;8.868;2023-04-25T20:10:19;8.10;92.10
19180;DHT22;9722;48.754;8.868;2023-04-25T20:13:39;8.20;92.20
19180;DHT22;9722;48.754;8.868;2023-04-25T20:17:00;8.20;92.20
19180;DHT22;9722;48.754;8.868;2023-04-25T20:20:20;8.20;92.10
19180;DHT22;9722;48.754;8.868;2023-04-25T20:23:41;8.20;92.10
19180;DHT22;9722;48.754;8.868;2023-04-25T20:27:03;8.20;92.00
19180;DHT22;9722;48.754;8.868;2023-04-25T20:30:23;8.20;92.00
19180;DHT22;9722;48.754;8.868;2023-04-25T20:33:44;8.20;91.90
19180;DHT22;9722;48.754;8.868;2023-04-25T20:37:05;8.20;91.80
19180;DHT22;9722;48.754;8.868;2023-04-25T20:40:27;8.20;91.80
19180;DHT22;9722;48.754;8.868;2023-04-25T20:43:48;8.10;92.10
19180;DHT22;9722;48.754;8.868;2023-04-25T20:47:09;8.20;91.90
19180;DHT22;9722;48.754;8.868;2023-04-25T20:50:31;8.20;91.80
19180;DHT22;9722;48.754;8.868;2023-04-25T20:53:52;8.20;91.60
19180;DHT22;9722;48.754;8.868;2023-04-25T20:57:12;8.20;91.60
19180;DHT22;9722;48.754;8.868;2023-04-25T21:00:33;8.20;91.60
19180;DHT22;9722;48.754;8.868;2023-04-25T21:03:54;8.20;91.70
19180;DHT22;9722;48.754;8.868;2023-04-25T21:07:14;8.20;91.70
19180;DHT22;9722;48.754;8.868;2023-04-25T21:10:35;8.20;91.80
19180;DHT22;9722;48.754;8.868;2023-04-25T21:13:55;8.20;91.80
19180;DHT22;9722;48.754;8.868;2023-04-25T21:17:16;8.20;91.80
19180;DHT22;9722;48.754;8.868;2023-04-25T21:20:38;8.30;91.70
19180;DHT22;9722;48.754;8.868;2023-04-25T21:23:58;8.20;91.60
19180;DHT22;9722;48.754;8.868;2023-04-25T21:27:19;8.20;91.70
19180;DHT22;9722;48.754;8.868;2023-04-25T21:30:39;8.30;91.90
19180;DHT22;9722;48.754;8.868;2023-04-25T21:34:02;8.20;92.00
19180;DHT22;9722;48.754;8.868;2023-04-25T21:37:22;8.20;92.10
19180;DHT22;9722;48.754;8.868;2023-04-25T21:40:43;8.20;92.10
19180;DHT22;9722;48.754;8.868;2023-04-25T21:44:03;8.20;92.10
19180;DHT22;9722;48.754;8.868;2023-04-25T21:47:24;8.20;92.30
19180;DHT22;9722;48.754;8.868;2023-04-25T21:50:44;8.10;92.30